createdAt,value
2022-08-20T07:46:21.584Z,29.53
2022-08-20T07:48:50.229Z,33.53
2022-08-20T07:51:20.326Z,32.17
2022-08-20T07:53:48.782Z,34.27
2022-08-20T07:56:19.272Z,32.20
2022-08-20T07:58:50.334Z,35.70
2022-08-20T08:01:20.178Z,33.90
2022-08-20T08:03:49.820Z,33.60
2022-08-20T08:06:19.679Z,34.63
2022-08-20T08:08:55.845Z,38.30
2022-08-20T08:11:22.843Z,33.63
2022-08-20T08:13:49.573Z,36.43
2022-08-20T08:16:16.325Z,37.47
2022-08-20T08:18:50.376Z,40.47
2022-08-20T08:21:18.430Z,38.10
2022-08-20T08:23:45.388Z,36.20
2022-08-20T08:26:17.812Z,36.87
2022-08-20T08:28:46.182Z,39.17
2022-08-20T08:31:13.297Z,38.57
2022-08-20T08:33:40.661Z,36.27
2022-08-20T08:36:13.530Z,35.87
2022-08-20T08:38:44.210Z,36.60
2022-08-20T08:41:33.975Z,40.60
2022-08-20T08:44:23.633Z,35.20
2022-08-20T08:47:19.147Z,42.77
2022-08-20T08:49:47.900Z,38.80
2022-08-20T08:52:22.248Z,39.67
2022-08-20T08:54:53.998Z,35.27
2022-08-20T08:57:20.644Z,37.03
2022-08-20T09:00:04.848Z,33.70
2022-08-20T09:02:35.241Z,34.87
2022-08-20T09:05:09.522Z,38.43
2022-08-20T09:07:37.863Z,36.57
2022-08-20T09:10:06.606Z,33.97
2022-08-20T09:12:33.244Z,32.63
2022-08-20T09:14:59.831Z,32.87
2022-08-20T09:17:26.420Z,34.10
2022-08-20T09:19:53.031Z,37.13
2022-08-20T09:22:25.530Z,33.83
2022-08-20T09:24:52.529Z,31.73
2022-08-20T09:27:19.413Z,32.23
2022-08-20T09:29:46.577Z,36.67
2022-08-20T09:32:23.901Z,30.63
2022-08-20T09:34:56.634Z,31.17
2022-08-20T09:37:25.802Z,29.97
2022-08-20T09:39:52.667Z,27.27
2022-08-20T09:42:28.587Z,26.53
2022-08-20T09:44:55.662Z,28.33
2022-08-20T09:47:22.586Z,25.27
2022-08-20T09:49:49.431Z,26.10
2022-08-20T09:52:29.466Z,24.07
2022-08-20T09:55:02.576Z,22.27
2022-08-20T09:57:31.435Z,29.37
2022-08-20T10:00:08.716Z,22.33
2022-08-20T10:02:35.862Z,24.77
2022-08-20T10:05:02.627Z,24.27
2022-08-20T10:07:29.563Z,22.60
2022-08-20T10:09:56.327Z,21.00
2022-08-20T10:12:23.976Z,20.30
2022-08-20T10:14:50.600Z,20.27
2022-08-20T10:17:17.271Z,21.43
2022-08-20T10:19:43.877Z,19.77
2022-08-20T10:22:10.462Z,22.30
2022-08-20T10:24:37.051Z,20.10
2022-08-20T10:27:04.007Z,18.97
2022-08-20T10:29:31.544Z,19.13
2022-08-20T10:32:09.620Z,17.10
2022-08-20T10:34:36.220Z,17.30
2022-08-20T10:37:02.840Z,16.67
2022-08-20T10:39:29.432Z,18.67
2022-08-20T10:41:58.263Z,17.30
2022-08-20T10:44:24.868Z,18.50
2022-08-20T10:46:51.900Z,16.10
2022-08-20T10:49:23.790Z,17.73
2022-08-20T10:51:50.421Z,15.40
2022-08-20T10:54:17.063Z,16.30
2022-08-20T10:56:43.642Z,13.47
2022-08-20T10:59:10.288Z,13.37
2022-08-20T11:01:37.058Z,11.30
2022-08-20T11:04:04.733Z,11.03
2022-08-20T11:06:31.408Z,11.00
2022-08-20T11:08:58.018Z,11.93
2022-08-20T11:11:24.755Z,10.97
2022-08-20T11:13:51.378Z,11.73
2022-08-20T11:16:17.996Z,11.37
2022-08-20T11:18:47.665Z,11.63
2022-08-20T11:21:14.872Z,10.77
2022-08-20T11:23:41.503Z,9.97
2022-08-20T11:26:08.525Z,9.30
2022-08-20T11:28:35.226Z,9.77
2022-08-20T11:31:02.150Z,9.17
2022-08-20T11:33:28.946Z,8.73
2022-08-20T11:35:55.696Z,8.03
2022-08-20T11:38:22.300Z,8.23
2022-08-20T11:40:48.902Z,9.50
2022-08-20T11:43:17.445Z,7.87
2022-08-20T11:45:47.229Z,7.93
2022-08-20T11:48:14.050Z,7.37
2022-08-20T11:50:40.888Z,7.80
2022-08-20T11:53:08.081Z,7.60
2022-08-20T11:55:35.354Z,7.30
2022-08-20T11:58:02.083Z,7.50
2022-08-20T12:00:32.754Z,6.10
2022-08-20T12:03:01.947Z,6.03
2022-08-20T12:05:29.932Z,6.70
2022-08-20T12:07:57.583Z,5.60
2022-08-20T12:10:26.311Z,6.67
2022-08-20T12:12:53.015Z,6.90
2022-08-20T12:15:20.340Z,5.67
2022-08-20T12:17:47.049Z,5.13
2022-08-20T12:20:15.518Z,5.70
2022-08-20T12:22:43.770Z,5.70
2022-08-20T12:25:12.059Z,5.33
2022-08-20T12:27:39.411Z,5.57
2022-08-20T12:30:10.028Z,5.50
2022-08-20T12:32:37.221Z,5.10
2022-08-20T12:35:05.695Z,5.07
2022-08-20T12:37:32.541Z,4.87
2022-08-20T12:40:00.762Z,5.50
2022-08-20T12:42:30.336Z,5.23
2022-08-20T12:44:58.066Z,4.73
2022-08-20T12:47:27.834Z,6.80
2022-08-20T12:50:00.754Z,6.50
2022-08-20T12:52:28.919Z,5.20
2022-08-20T12:54:57.016Z,5.10
2022-08-20T12:57:28.768Z,6.50
2022-08-20T13:00:00.621Z,5.80
2022-08-20T13:02:30.602Z,5.43
2022-08-20T13:05:00.117Z,6.30
2022-08-20T13:07:29.243Z,5.73
2022-08-20T13:09:55.830Z,6.43
2022-08-20T21:06:35.702Z,6.33
2022-08-20T21:09:02.546Z,5.87
2022-08-20T21:11:29.404Z,4.07
2022-08-20T21:13:56.083Z,4.53
2022-08-20T21:16:22.703Z,5.30
2022-08-20T21:18:49.324Z,4.50
2022-08-20T21:21:16.128Z,6.80
2022-08-20T21:23:42.796Z,5.50
2022-08-20T21:26:09.759Z,5.00
2022-08-20T21:28:36.477Z,4.53
2022-08-20T21:31:03.348Z,5.20
2022-08-20T21:33:30.028Z,8.13
2022-08-20T21:35:56.912Z,5.20
2022-08-20T21:38:23.937Z,5.23
2022-08-20T21:40:51.109Z,7.73
2022-08-20T21:43:18.820Z,4.70
2022-08-20T21:45:45.614Z,5.63
2022-08-20T21:48:16.241Z,5.23
2022-08-20T21:50:43.560Z,5.20
2022-08-20T21:53:12.743Z,5.53
2022-08-20T21:55:40.789Z,5.93
2022-08-20T21:58:08.422Z,8.00
2022-08-20T22:00:46.993Z,6.30
2022-08-20T22:03:15.212Z,6.60
2022-08-20T22:05:43.923Z,8.70
2022-08-20T22:08:10.812Z,6.70
2022-08-20T22:10:37.878Z,8.03
2022-08-20T22:16:45.497Z,6.93
2022-08-20T22:19:15.984Z,9.37
2022-08-20T22:21:43.318Z,5.50
2022-08-20T22:24:11.007Z,6.83
2022-08-20T22:26:40.250Z,6.50
2022-08-20T22:29:10.048Z,5.50
2022-08-20T22:31:39.381Z,6.07
2022-08-20T22:34:06.849Z,6.17
2022-08-20T22:36:33.823Z,6.07
2022-08-20T22:39:00.512Z,6.23
2022-08-20T22:41:27.977Z,8.10
2022-08-20T22:43:56.919Z,6.40
2022-08-20T22:46:26.496Z,4.90
2022-08-20T22:48:53.941Z,5.77
2022-08-20T22:51:29.180Z,5.97
2022-08-20T22:53:57.232Z,5.23
2022-08-20T22:56:23.883Z,5.20
2022-08-20T22:58:51.006Z,5.50
2022-08-20T23:01:20.038Z,6.23
2022-08-20T23:03:46.859Z,4.90
2022-08-20T23:06:13.774Z,5.50
2022-08-20T23:08:41.815Z,5.30
2022-08-20T23:11:09.166Z,7.23
2022-08-20T23:13:35.894Z,5.80
2022-08-20T23:16:03.248Z,5.50
2022-08-20T23:18:30.176Z,5.77
2022-08-20T23:20:59.009Z,4.77
2022-08-20T23:23:27.104Z,4.60
2022-08-20T23:25:54.618Z,5.03
2022-08-20T23:28:24.370Z,5.10
2022-08-20T23:30:51.385Z,6.13
2022-08-20T23:33:18.458Z,4.80
2022-08-20T23:35:45.896Z,5.37
2022-08-20T23:38:12.802Z,7.30
2022-08-20T23:40:40.014Z,6.93
2022-08-20T23:43:06.901Z,5.97
